Terminal Aerodrome Forecast
Issued by NWS

Home | Current Version | Previous Version | Graphics & Text | Print | Product List | Glossary On
Versions: 1 2 3 4 5 6 7 8 9 10 11 12 13 14 15 16 17 18 19 20 21
694
FTUS43 KMPX 261139
TAFRWF
TAF
KRWF 261139Z 2612/2712 06007KT P6SM OVC005
     FM261500 07008KT P6SM OVC008
     FM261800 07011KT P6SM OVC015
     FM262000 07011KT P6SM OVC025
     FM270100 08012KT P6SM OVC035=

USA.gov is the U.S. government's official web portal to all federal, state and local government web resources and services.